sensor_id;sensor_type;location;lat;lon;timestamp;P1;durP1;ratioP1;P2;durP2;ratioP2
75220;SDS011;63802;53.232;6.570;2023-05-25T00:01:08;13.45;;;4.60;;
75220;SDS011;63802;53.232;6.570;2023-05-25T00:03:34;19.48;;;6.07;;
75220;SDS011;63802;53.232;6.570;2023-05-25T00:06:00;14.23;;;5.40;;
75220;SDS011;63802;53.232;6.570;2023-05-25T00:08:25;17.48;;;5.50;;
75220;SDS011;63802;53.232;6.570;2023-05-25T00:10:51;19.48;;;4.97;;
75220;SDS011;63802;53.232;6.570;2023-05-25T00:13:16;14.82;;;4.90;;
75220;SDS011;63802;53.232;6.570;2023-05-25T00:15:42;15.88;;;5.15;;
75220;SDS011;63802;53.232;6.570;2023-05-25T00:18:10;14.63;;;4.75;;
75220;SDS011;63802;53.232;6.570;2023-05-25T00:20:37;10.65;;;4.00;;
75220;SDS011;63802;53.232;6.570;2023-05-25T00:23:02;11.07;;;4.30;;
75220;SDS011;63802;53.232;6.570;2023-05-25T00:25:28;13.57;;;4.40;;
75220;SDS011;63802;53.232;6.570;2023-05-25T00:27:53;15.95;;;5.25;;
75220;SDS011;63802;53.232;6.570;2023-05-25T00:30:19;14.60;;;5.30;;
75220;SDS011;63802;53.232;6.570;2023-05-25T00:32:44;11.93;;;4.63;;
75220;SDS011;63802;53.232;6.570;2023-05-25T00:35:10;18.33;;;5.70;;
75220;SDS011;63802;53.232;6.570;2023-05-25T00:37:35;15.73;;;5.25;;
75220;SDS011;63802;53.232;6.570;2023-05-25T00:40:00;19.17;;;5.65;;
75220;SDS011;63802;53.232;6.570;2023-05-25T00:42:26;16.25;;;5.57;;
75220;SDS011;63802;53.232;6.570;2023-05-25T00:44:52;14.60;;;5.72;;
75220;SDS011;63802;53.232;6.570;2023-05-25T00:47:18;13.48;;;5.88;;
75220;SDS011;63802;53.232;6.570;2023-05-25T00:49:43;15.85;;;5.35;;
75220;SDS011;63802;53.232;6.570;2023-05-25T00:52:10;19.00;;;6.18;;
75220;SDS011;63802;53.232;6.570;2023-05-25T00:54:36;11.88;;;5.35;;
75220;SDS011;63802;53.232;6.570;2023-05-25T00:57:02;14.30;;;5.13;;
75220;SDS011;63802;53.232;6.570;2023-05-25T00:59:39;11.27;;;4.73;;
75220;SDS011;63802;53.232;6.570;2023-05-25T01:02:10;22.88;;;5.75;;
75220;SDS011;63802;53.232;6.570;2023-05-25T01:04:44;17.63;;;6.05;;
75220;SDS011;63802;53.232;6.570;2023-05-25T01:07:13;14.40;;;5.35;;
75220;SDS011;63802;53.232;6.570;2023-05-25T01:09:43;20.08;;;6.05;;
75220;SDS011;63802;53.232;6.570;2023-05-25T01:12:10;15.07;;;6.00;;
75220;SDS011;63802;53.232;6.570;2023-05-25T01:14:38;18.13;;;5.70;;
75220;SDS011;63802;53.232;6.570;2023-05-25T01:17:07;13.25;;;5.10;;
75220;SDS011;63802;53.232;6.570;2023-05-25T01:19:34;15.13;;;5.72;;
75220;SDS011;63802;53.232;6.570;2023-05-25T01:24:52;15.40;;;5.85;;
75220;SDS011;63802;53.232;6.570;2023-05-25T01:30:05;13.45;;;4.85;;
75220;SDS011;63802;53.232;6.570;2023-05-25T01:32:35;12.90;;;5.25;;
75220;SDS011;63802;53.232;6.570;2023-05-25T01:35:02;17.52;;;5.80;;
75220;SDS011;63802;53.232;6.570;2023-05-25T01:37:28;14.13;;;5.40;;
75220;SDS011;63802;53.232;6.570;2023-05-25T01:39:55;14.07;;;5.60;;
75220;SDS011;63802;53.232;6.570;2023-05-25T01:42:20;13.93;;;5.80;;
75220;SDS011;63802;53.232;6.570;2023-05-25T01:44:46;13.90;;;5.65;;
75220;SDS011;63802;53.232;6.570;2023-05-25T01:50:02;14.45;;;5.38;;
75220;SDS011;63802;53.232;6.570;2023-05-25T01:52:35;13.73;;;5.22;;
75220;SDS011;63802;53.232;6.570;2023-05-25T01:55:10;12.70;;;5.27;;
75220;SDS011;63802;53.232;6.570;2023-05-25T01:57:39;13.45;;;5.40;;
75220;SDS011;63802;53.232;6.570;2023-05-25T02:00:08;20.08;;;6.15;;
75220;SDS011;63802;53.232;6.570;2023-05-25T02:02:35;16.98;;;6.00;;
75220;SDS011;63802;53.232;6.570;2023-05-25T02:05:06;16.48;;;6.15;;
75220;SDS011;63802;53.232;6.570;2023-05-25T02:07:32;15.65;;;5.78;;
75220;SDS011;63802;53.232;6.570;2023-05-25T02:09:57;16.35;;;6.00;;
75220;SDS011;63802;53.232;6.570;2023-05-25T02:12:23;18.90;;;6.28;;
75220;SDS011;63802;53.232;6.570;2023-05-25T02:14:49;18.42;;;5.72;;
75220;SDS011;63802;53.232;6.570;2023-05-25T02:17:15;18.85;;;6.57;;
75220;SDS011;63802;53.232;6.570;2023-05-25T02:19:42;18.83;;;5.78;;
75220;SDS011;63802;53.232;6.570;2023-05-25T02:22:08;13.85;;;6.43;;
75220;SDS011;63802;53.232;6.570;2023-05-25T02:24:34;15.05;;;6.10;;
75220;SDS011;63802;53.232;6.570;2023-05-25T02:27:00;17.67;;;5.60;;
75220;SDS011;63802;53.232;6.570;2023-05-25T02:29:25;13.60;;;6.22;;
75220;SDS011;63802;53.232;6.570;2023-05-25T02:31:51;13.95;;;5.65;;
75220;SDS011;63802;53.232;6.570;2023-05-25T02:34:16;17.88;;;5.47;;
75220;SDS011;63802;53.232;6.570;2023-05-25T02:36:43;16.13;;;6.65;;
75220;SDS011;63802;53.232;6.570;2023-05-25T02:39:09;18.55;;;5.50;;
75220;SDS011;63802;53.232;6.570;2023-05-25T02:41:36;18.85;;;6.35;;
75220;SDS011;63802;53.232;6.570;2023-05-25T02:44:01;14.10;;;5.50;;
75220;SDS011;63802;53.232;6.570;2023-05-25T02:46:27;15.50;;;6.57;;
75220;SDS011;63802;53.232;6.570;2023-05-25T02:48:53;12.73;;;5.40;;
75220;SDS011;63802;53.232;6.570;2023-05-25T02:51:18;16.10;;;5.50;;
75220;SDS011;63802;53.232;6.570;2023-05-25T02:53:43;18.98;;;6.47;;
75220;SDS011;63802;53.232;6.570;2023-05-25T02:56:09;15.38;;;5.43;;
75220;SDS011;63802;53.232;6.570;2023-05-25T02:58:35;14.13;;;5.47;;
75220;SDS011;63802;53.232;6.570;2023-05-25T03:01:01;14.60;;;5.57;;
75220;SDS011;63802;53.232;6.570;2023-05-25T03:03:29;14.32;;;6.03;;
75220;SDS011;63802;53.232;6.570;2023-05-25T03:05:55;18.73;;;6.43;;
75220;SDS011;63802;53.232;6.570;2023-05-25T03:08:21;20.42;;;7.65;;
75220;SDS011;63802;53.232;6.570;2023-05-25T03:10:47;21.38;;;7.00;;
75220;SDS011;63802;53.232;6.570;2023-05-25T03:13:13;18.98;;;6.47;;
75220;SDS011;63802;53.232;6.570;2023-05-25T03:15:39;20.33;;;6.75;;
75220;SDS011;63802;53.232;6.570;2023-05-25T03:18:05;21.65;;;6.82;;
75220;SDS011;63802;53.232;6.570;2023-05-25T03:20:31;20.73;;;6.45;;
75220;SDS011;63802;53.232;6.570;2023-05-25T03:22:57;20.98;;;7.18;;
75220;SDS011;63802;53.232;6.570;2023-05-25T03:25:22;18.98;;;6.53;;
75220;SDS011;63802;53.232;6.570;2023-05-25T03:27:51;19.50;;;7.57;;
75220;SDS011;63802;53.232;6.570;2023-05-25T03:30:18;17.38;;;6.47;;
75220;SDS011;63802;53.232;6.570;2023-05-25T03:32:44;13.25;;;6.55;;
75220;SDS011;63802;53.232;6.570;2023-05-25T03:35:09;17.17;;;7.10;;
75220;SDS011;63802;53.232;6.570;2023-05-25T03:37:35;19.20;;;6.72;;
75220;SDS011;63802;53.232;6.570;2023-05-25T03:40:00;27.45;;;7.95;;
75220;SDS011;63802;53.232;6.570;2023-05-25T03:42:26;27.60;;;7.85;;
75220;SDS011;63802;53.232;6.570;2023-05-25T03:44:52;30.15;;;8.70;;
75220;SDS011;63802;53.232;6.570;2023-05-25T03:47:17;22.50;;;8.10;;
75220;SDS011;63802;53.232;6.570;2023-05-25T03:49:43;25.50;;;8.43;;
75220;SDS011;63802;53.232;6.570;2023-05-25T03:52:08;28.08;;;8.82;;
75220;SDS011;63802;53.232;6.570;2023-05-25T03:54:34;18.00;;;7.40;;
75220;SDS011;63802;53.232;6.570;2023-05-25T03:56:59;24.65;;;8.00;;
75220;SDS011;63802;53.232;6.570;2023-05-25T03:59:27;19.70;;;7.82;;
75220;SDS011;63802;53.232;6.570;2023-05-25T04:01:52;25.83;;;7.80;;
75220;SDS011;63802;53.232;6.570;2023-05-25T04:04:18;18.63;;;7.82;;
75220;SDS011;63802;53.232;6.570;2023-05-25T04:06:43;20.13;;;7.70;;
75220;SDS011;63802;53.232;6.570;2023-05-25T04:09:15;21.67;;;7.97;;
75220;SDS011;63802;53.232;6.570;2023-05-25T04:11:43;22.83;;;7.78;;
75220;SDS011;63802;53.232;6.570;2023-05-25T04:14:09;18.92;;;6.78;;
75220;SDS011;63802;53.232;6.570;2023-05-25T04:16:35;26.75;;;7.80;;
75220;SDS011;63802;53.232;6.570;2023-05-25T04:19:00;23.48;;;7.97;;
75220;SDS011;63802;53.232;6.570;2023-05-25T04:21:26;18.90;;;6.78;;
75220;SDS011;63802;53.232;6.570;2023-05-25T04:23:51;19.15;;;8.02;;
75220;SDS011;63802;53.232;6.570;2023-05-25T04:26:17;19.58;;;8.57;;
75220;SDS011;63802;53.232;6.570;2023-05-25T04:28:42;24.90;;;9.02;;
75220;SDS011;63802;53.232;6.570;2023-05-25T04:31:08;21.85;;;7.35;;
75220;SDS011;63802;53.232;6.570;2023-05-25T04:33:33;18.13;;;7.60;;
75220;SDS011;63802;53.232;6.570;2023-05-25T04:36:02;22.15;;;7.35;;
75220;SDS011;63802;53.232;6.570;2023-05-25T04:38:30;18.35;;;7.30;;
75220;SDS011;63802;53.232;6.570;2023-05-25T04:40:57;18.08;;;7.07;;
75220;SDS011;63802;53.232;6.570;2023-05-25T04:43:23;20.67;;;7.25;;
75220;SDS011;63802;53.232;6.570;2023-05-25T04:45:50;19.35;;;8.02;;
75220;SDS011;63802;53.232;6.570;2023-05-25T04:48:16;25.90;;;7.82;;
75220;SDS011;63802;53.232;6.570;2023-05-25T04:50:42;20.52;;;8.35;;
75220;SDS011;63802;53.232;6.570;2023-05-25T04:53:07;21.73;;;8.70;;
75220;SDS011;63802;53.232;6.570;2023-05-25T04:55:33;24.05;;;8.52;;
75220;SDS011;63802;53.232;6.570;2023-05-25T04:57:58;21.77;;;8.30;;
75220;SDS011;63802;53.232;6.570;2023-05-25T05:00:25;20.80;;;7.07;;
75220;SDS011;63802;53.232;6.570;2023-05-25T05:02:52;18.80;;;8.48;;
75220;SDS011;63802;53.232;6.570;2023-05-25T05:05:20;23.15;;;7.65;;
75220;SDS011;63802;53.232;6.570;2023-05-25T05:07:46;19.08;;;7.30;;
75220;SDS011;63802;53.232;6.570;2023-05-25T05:10:11;17.73;;;7.03;;
75220;SDS011;63802;53.232;6.570;2023-05-25T05:12:37;15.35;;;6.65;;
75220;SDS011;63802;53.232;6.570;2023-05-25T05:15:03;14.20;;;5.50;;
75220;SDS011;63802;53.232;6.570;2023-05-25T05:17:28;18.00;;;5.57;;
75220;SDS011;63802;53.232;6.570;2023-05-25T05:19:55;13.07;;;5.80;;
75220;SDS011;63802;53.232;6.570;2023-05-25T05:22:20;13.73;;;5.80;;
75220;SDS011;63802;53.232;6.570;2023-05-25T05:24:46;14.65;;;6.13;;
75220;SDS011;63802;53.232;6.570;2023-05-25T05:27:11;15.27;;;6.25;;
75220;SDS011;63802;53.232;6.570;2023-05-25T05:29:38;15.52;;;5.28;;
75220;SDS011;63802;53.232;6.570;2023-05-25T05:32:05;18.27;;;6.00;;
75220;SDS011;63802;53.232;6.570;2023-05-25T05:34:31;10.32;;;4.63;;
75220;SDS011;63802;53.232;6.570;2023-05-25T05:36:57;11.80;;;5.05;;
75220;SDS011;63802;53.232;6.570;2023-05-25T05:39:24;9.85;;;5.03;;
75220;SDS011;63802;53.232;6.570;2023-05-25T05:41:51;12.07;;;4.28;;
75220;SDS011;63802;53.232;6.570;2023-05-25T05:44:17;18.77;;;5.22;;
75220;SDS011;63802;53.232;6.570;2023-05-25T05:46:42;15.05;;;5.30;;
75220;SDS011;63802;53.232;6.570;2023-05-25T05:49:08;13.88;;;4.47;;
75220;SDS011;63802;53.232;6.570;2023-05-25T05:51:33;14.80;;;3.97;;
75220;SDS011;63802;53.232;6.570;2023-05-25T05:53:58;15.27;;;4.97;;
75220;SDS011;63802;53.232;6.570;2023-05-25T05:56:24;11.48;;;3.72;;
75220;SDS011;63802;53.232;6.570;2023-05-25T05:58:50;10.73;;;3.50;;
75220;SDS011;63802;53.232;6.570;2023-05-25T06:01:17;13.35;;;3.50;;
75220;SDS011;63802;53.232;6.570;2023-05-25T06:03:43;14.20;;;3.60;;
75220;SDS011;63802;53.232;6.570;2023-05-25T06:06:09;9.60;;;2.60;;
75220;SDS011;63802;53.232;6.570;2023-05-25T06:08:35;12.35;;;3.22;;
75220;SDS011;63802;53.232;6.570;2023-05-25T06:11:01;10.18;;;2.45;;
75220;SDS011;63802;53.232;6.570;2023-05-25T06:13:26;11.52;;;2.80;;
75220;SDS011;63802;53.232;6.570;2023-05-25T06:15:51;13.18;;;3.00;;
75220;SDS011;63802;53.232;6.570;2023-05-25T06:18:17;9.32;;;2.85;;
75220;SDS011;63802;53.232;6.570;2023-05-25T06:20:43;12.95;;;3.35;;
75220;SDS011;63802;53.232;6.570;2023-05-25T06:23:08;13.00;;;2.95;;
75220;SDS011;63802;53.232;6.570;2023-05-25T06:25:36;10.95;;;3.30;;
75220;SDS011;63802;53.232;6.570;2023-05-25T06:28:01;7.28;;;2.55;;
75220;SDS011;63802;53.232;6.570;2023-05-25T06:30:27;11.68;;;3.17;;
75220;SDS011;63802;53.232;6.570;2023-05-25T06:32:52;15.88;;;3.38;;
75220;SDS011;63802;53.232;6.570;2023-05-25T06:35:18;12.38;;;2.50;;
75220;SDS011;63802;53.232;6.570;2023-05-25T06:37:46;13.40;;;3.28;;
75220;SDS011;63802;53.232;6.570;2023-05-25T06:40:15;9.45;;;3.15;;
75220;SDS011;63802;53.232;6.570;2023-05-25T06:42:41;14.05;;;3.13;;
75220;SDS011;63802;53.232;6.570;2023-05-25T06:45:07;13.77;;;2.97;;
75220;SDS011;63802;53.232;6.570;2023-05-25T06:47:33;19.45;;;3.13;;
75220;SDS011;63802;53.232;6.570;2023-05-25T06:49:59;16.20;;;3.20;;
75220;SDS011;63802;53.232;6.570;2023-05-25T06:52:25;12.32;;;3.20;;
75220;SDS011;63802;53.232;6.570;2023-05-25T06:54:54;14.48;;;3.28;;
75220;SDS011;63802;53.232;6.570;2023-05-25T06:57:20;10.32;;;3.22;;
75220;SDS011;63802;53.232;6.570;2023-05-25T06:59:46;17.08;;;3.03;;
75220;SDS011;63802;53.232;6.570;2023-05-25T07:02:11;23.10;;;3.40;;
75220;SDS011;63802;53.232;6.570;2023-05-25T07:04:37;18.25;;;2.97;;
75220;SDS011;63802;53.232;6.570;2023-05-25T07:07:02;22.52;;;4.57;;
75220;SDS011;63802;53.232;6.570;2023-05-25T07:09:28;12.98;;;3.20;;
75220;SDS011;63802;53.232;6.570;2023-05-25T07:11:54;16.42;;;3.17;;
75220;SDS011;63802;53.232;6.570;2023-05-25T07:14:19;23.95;;;4.22;;
75220;SDS011;63802;53.232;6.570;2023-05-25T07:16:45;19.92;;;3.60;;
75220;SDS011;63802;53.232;6.570;2023-05-25T07:19:10;13.85;;;3.17;;
75220;SDS011;63802;53.232;6.570;2023-05-25T07:21:36;14.68;;;3.40;;
75220;SDS011;63802;53.232;6.570;2023-05-25T07:24:02;11.95;;;3.30;;
75220;SDS011;63802;53.232;6.570;2023-05-25T07:26:30;16.02;;;2.95;;
75220;SDS011;63802;53.232;6.570;2023-05-25T07:28:57;13.82;;;3.15;;
75220;SDS011;63802;53.232;6.570;2023-05-25T07:31:22;19.70;;;3.35;;
75220;SDS011;63802;53.232;6.570;2023-05-25T07:33:48;12.57;;;2.95;;
75220;SDS011;63802;53.232;6.570;2023-05-25T07:36:14;16.60;;;3.22;;
75220;SDS011;63802;53.232;6.570;2023-05-25T07:38:39;15.52;;;3.50;;
75220;SDS011;63802;53.232;6.570;2023-05-25T07:41:06;20.40;;;3.13;;
75220;SDS011;63802;53.232;6.570;2023-05-25T07:43:31;15.27;;;3.33;;
75220;SDS011;63802;53.232;6.570;2023-05-25T07:45:56;12.40;;;2.85;;
75220;SDS011;63802;53.232;6.570;2023-05-25T07:48:23;15.60;;;2.70;;
75220;SDS011;63802;53.232;6.570;2023-05-25T07:50:48;15.32;;;2.90;;
75220;SDS011;63802;53.232;6.570;2023-05-25T07:53:13;20.77;;;3.50;;
75220;SDS011;63802;53.232;6.570;2023-05-25T07:55:39;19.25;;;3.50;;
75220;SDS011;63802;53.232;6.570;2023-05-25T07:58:04;18.75;;;3.30;;
75220;SDS011;63802;53.232;6.570;2023-05-25T08:00:31;21.52;;;3.20;;
75220;SDS011;63802;53.232;6.570;2023-05-25T08:03:00;16.67;;;3.50;;
75220;SDS011;63802;53.232;6.570;2023-05-25T08:05:29;18.23;;;3.42;;
75220;SDS011;63802;53.232;6.570;2023-05-25T08:07:54;17.08;;;3.30;;
75220;SDS011;63802;53.232;6.570;2023-05-25T08:10:20;17.50;;;3.22;;
75220;SDS011;63802;53.232;6.570;2023-05-25T08:12:45;18.88;;;3.58;;
75220;SDS011;63802;53.232;6.570;2023-05-25T08:15:10;15.95;;;3.05;;
75220;SDS011;63802;53.232;6.570;2023-05-25T08:17:37;14.45;;;3.10;;
75220;SDS011;63802;53.232;6.570;2023-05-25T08:20:03;17.88;;;3.45;;
75220;SDS011;63802;53.232;6.570;2023-05-25T08:22:30;13.02;;;2.67;;
75220;SDS011;63802;53.232;6.570;2023-05-25T08:24:55;14.50;;;3.90;;
75220;SDS011;63802;53.232;6.570;2023-05-25T08:27:21;16.42;;;2.78;;
75220;SDS011;63802;53.232;6.570;2023-05-25T08:29:46;16.98;;;4.82;;
75220;SDS011;63802;53.232;6.570;2023-05-25T08:32:12;15.18;;;2.92;;
75220;SDS011;63802;53.232;6.570;2023-05-25T08:34:38;12.55;;;3.15;;
75220;SDS011;63802;53.232;6.570;2023-05-25T08:37:03;16.63;;;2.80;;
75220;SDS011;63802;53.232;6.570;2023-05-25T08:39:28;20.92;;;3.05;;
75220;SDS011;63802;53.232;6.570;2023-05-25T08:41:54;15.38;;;3.28;;
75220;SDS011;63802;53.232;6.570;2023-05-25T08:44:20;19.48;;;3.63;;
75220;SDS011;63802;53.232;6.570;2023-05-25T08:46:48;16.70;;;3.72;;
75220;SDS011;63802;53.232;6.570;2023-05-25T08:49:14;13.63;;;2.97;;
75220;SDS011;63802;53.232;6.570;2023-05-25T08:51:53;15.13;;;3.55;;
75220;SDS011;63802;53.232;6.570;2023-05-25T08:54:23;13.50;;;2.97;;
75220;SDS011;63802;53.232;6.570;2023-05-25T08:57:28;18.15;;;3.83;;
75220;SDS011;63802;53.232;6.570;2023-05-25T09:00:05;18.52;;;2.80;;
75220;SDS011;63802;53.232;6.570;2023-05-25T09:05:03;13.43;;;3.28;;
75220;SDS011;63802;53.232;6.570;2023-05-25T09:07:29;14.27;;;2.90;;
75220;SDS011;63802;53.232;6.570;2023-05-25T09:09:56;16.10;;;3.42;;
75220;SDS011;63802;53.232;6.570;2023-05-25T09:12:22;13.38;;;2.95;;
75220;SDS011;63802;53.232;6.570;2023-05-25T09:14:48;16.95;;;3.35;;
75220;SDS011;63802;53.232;6.570;2023-05-25T09:17:14;14.05;;;3.03;;
75220;SDS011;63802;53.232;6.570;2023-05-25T09:19:41;14.30;;;3.25;;
75220;SDS011;63802;53.232;6.570;2023-05-25T09:22:07;16.98;;;2.88;;
75220;SDS011;63802;53.232;6.570;2023-05-25T09:24:34;16.67;;;2.97;;
75220;SDS011;63802;53.232;6.570;2023-05-25T09:27:00;17.70;;;3.78;;
75220;SDS011;63802;53.232;6.570;2023-05-25T09:29:27;19.90;;;3.22;;
75220;SDS011;63802;53.232;6.570;2023-05-25T09:31:52;14.20;;;2.67;;
75220;SDS011;63802;53.232;6.570;2023-05-25T09:34:18;15.43;;;3.05;;
75220;SDS011;63802;53.232;6.570;2023-05-25T09:36:44;20.35;;;3.38;;
75220;SDS011;63802;53.232;6.570;2023-05-25T09:39:09;14.02;;;3.15;;
75220;SDS011;63802;53.232;6.570;2023-05-25T09:41:36;17.38;;;3.20;;
75220;SDS011;63802;53.232;6.570;2023-05-25T09:44:05;14.73;;;3.92;;
75220;SDS011;63802;53.232;6.570;2023-05-25T09:46:31;20.85;;;3.70;;
75220;SDS011;63802;53.232;6.570;2023-05-25T09:49:00;22.77;;;3.67;;
75220;SDS011;63802;53.232;6.570;2023-05-25T09:51:26;22.20;;;3.42;;
75220;SDS011;63802;53.232;6.570;2023-05-25T09:53:54;18.83;;;4.07;;
75220;SDS011;63802;53.232;6.570;2023-05-25T09:56:20;18.25;;;3.70;;
75220;SDS011;63802;53.232;6.570;2023-05-25T09:58:47;18.80;;;3.10;;
75220;SDS011;63802;53.232;6.570;2023-05-25T10:01:13;22.83;;;3.45;;
75220;SDS011;63802;53.232;6.570;2023-05-25T10:03:45;15.80;;;3.60;;
75220;SDS011;63802;53.232;6.570;2023-05-25T10:06:15;20.10;;;3.53;;
75220;SDS011;63802;53.232;6.570;2023-05-25T10:08:44;21.13;;;3.78;;
75220;SDS011;63802;53.232;6.570;2023-05-25T10:11:12;19.27;;;3.65;;
75220;SDS011;63802;53.232;6.570;2023-05-25T10:13:38;13.52;;;2.90;;
75220;SDS011;63802;53.232;6.570;2023-05-25T10:16:05;21.95;;;5.07;;
75220;SDS011;63802;53.232;6.570;2023-05-25T10:18:34;21.02;;;3.90;;
75220;SDS011;63802;53.232;6.570;2023-05-25T10:21:04;15.90;;;3.63;;
75220;SDS011;63802;53.232;6.570;2023-05-25T10:23:36;16.97;;;3.63;;
75220;SDS011;63802;53.232;6.570;2023-05-25T10:26:08;19.88;;;3.47;;
75220;SDS011;63802;53.232;6.570;2023-05-25T10:28:38;19.10;;;4.80;;
75220;SDS011;63802;53.232;6.570;2023-05-25T10:31:04;16.33;;;3.45;;
75220;SDS011;63802;53.232;6.570;2023-05-25T10:33:31;17.58;;;3.42;;
75220;SDS011;63802;53.232;6.570;2023-05-25T10:35:57;17.95;;;3.63;;
75220;SDS011;63802;53.232;6.570;2023-05-25T10:38:27;16.95;;;3.47;;
75220;SDS011;63802;53.232;6.570;2023-05-25T10:40:55;16.10;;;3.90;;
75220;SDS011;63802;53.232;6.570;2023-05-25T10:43:23;21.38;;;3.58;;
75220;SDS011;63802;53.232;6.570;2023-05-25T10:45:50;16.75;;;3.25;;
75220;SDS011;63802;53.232;6.570;2023-05-25T10:48:15;12.95;;;3.25;;
75220;SDS011;63802;53.232;6.570;2023-05-25T10:50:41;21.60;;;3.53;;
75220;SDS011;63802;53.232;6.570;2023-05-25T10:53:14;16.88;;;3.40;;
75220;SDS011;63802;53.232;6.570;2023-05-25T10:56:22;14.93;;;3.10;;
75220;SDS011;63802;53.232;6.570;2023-05-25T10:58:30;16.95;;;3.20;;
75220;SDS011;63802;53.232;6.570;2023-05-25T11:01:06;19.20;;;3.42;;
75220;SDS011;63802;53.232;6.570;2023-05-25T11:06:17;12.55;;;3.15;;
75220;SDS011;63802;53.232;6.570;2023-05-25T11:11:21;14.55;;;3.10;;
75220;SDS011;63802;53.232;6.570;2023-05-25T11:13:47;13.15;;;3.03;;
75220;SDS011;63802;53.232;6.570;2023-05-25T11:18:42;17.83;;;3.22;;
75220;SDS011;63802;53.232;6.570;2023-05-25T11:21:14;12.83;;;3.40;;
75220;SDS011;63802;53.232;6.570;2023-05-25T11:23:53;15.93;;;3.65;;
75220;SDS011;63802;53.232;6.570;2023-05-25T11:26:23;18.08;;;3.60;;
75220;SDS011;63802;53.232;6.570;2023-05-25T11:28:50;20.00;;;3.40;;
75220;SDS011;63802;53.232;6.570;2023-05-25T11:31:20;17.40;;;3.10;;
75220;SDS011;63802;53.232;6.570;2023-05-25T11:34:01;15.77;;;3.85;;
75220;SDS011;63802;53.232;6.570;2023-05-25T11:36:34;18.60;;;3.28;;
75220;SDS011;63802;53.232;6.570;2023-05-25T11:39:01;19.02;;;3.60;;
75220;SDS011;63802;53.232;6.570;2023-05-25T11:41:31;20.35;;;3.20;;
75220;SDS011;63802;53.232;6.570;2023-05-25T11:44:01;21.63;;;3.50;;
75220;SDS011;63802;53.232;6.570;2023-05-25T11:46:28;18.83;;;3.38;;
75220;SDS011;63802;53.232;6.570;2023-05-25T11:48:57;15.25;;;3.45;;
75220;SDS011;63802;53.232;6.570;2023-05-25T11:51:25;18.52;;;3.50;;
75220;SDS011;63802;53.232;6.570;2023-05-25T11:53:51;15.63;;;3.08;;
75220;SDS011;63802;53.232;6.570;2023-05-25T11:56:17;15.32;;;3.22;;
75220;SDS011;63802;53.232;6.570;2023-05-25T11:58:44;13.63;;;3.25;;
75220;SDS011;63802;53.232;6.570;2023-05-25T12:01:14;19.63;;;3.47;;
75220;SDS011;63802;53.232;6.570;2023-05-25T12:03:47;16.92;;;3.60;;
75220;SDS011;63802;53.232;6.570;2023-05-25T12:06:23;17.27;;;3.42;;
75220;SDS011;63802;53.232;6.570;2023-05-25T12:08:57;17.83;;;3.67;;
75220;SDS011;63802;53.232;6.570;2023-05-25T12:11:26;14.45;;;2.97;;
75220;SDS011;63802;53.232;6.570;2023-05-25T12:13:59;12.98;;;3.40;;
75220;SDS011;63802;53.232;6.570;2023-05-25T12:16:27;21.90;;;3.50;;
75220;SDS011;63802;53.232;6.570;2023-05-25T12:18:54;16.05;;;3.25;;
75220;SDS011;63802;53.232;6.570;2023-05-25T12:21:20;18.33;;;3.30;;
75220;SDS011;63802;53.232;6.570;2023-05-25T12:23:47;19.67;;;4.05;;
75220;SDS011;63802;53.232;6.570;2023-05-25T12:26:14;15.18;;;3.90;;
75220;SDS011;63802;53.232;6.570;2023-05-25T12:29:02;17.10;;;3.70;;
75220;SDS011;63802;53.232;6.570;2023-05-25T12:31:31;18.20;;;3.38;;
75220;SDS011;63802;53.232;6.570;2023-05-25T12:34:11;20.98;;;4.15;;
75220;SDS011;63802;53.232;6.570;2023-05-25T12:36:42;15.43;;;3.47;;
75220;SDS011;63802;53.232;6.570;2023-05-25T12:39:09;11.25;;;3.17;;
75220;SDS011;63802;53.232;6.570;2023-05-25T12:41:49;16.17;;;3.40;;
75220;SDS011;63802;53.232;6.570;2023-05-25T12:44:19;18.55;;;3.53;;
75220;SDS011;63802;53.232;6.570;2023-05-25T12:46:52;17.58;;;3.15;;
75220;SDS011;63802;53.232;6.570;2023-05-25T12:49:26;16.38;;;3.17;;
75220;SDS011;63802;53.232;6.570;2023-05-25T12:51:56;16.48;;;3.30;;
75220;SDS011;63802;53.232;6.570;2023-05-25T12:57:00;16.17;;;3.38;;
75220;SDS011;63802;53.232;6.570;2023-05-25T12:59:28;12.35;;;2.90;;
75220;SDS011;63802;53.232;6.570;2023-05-25T13:01:54;14.23;;;3.30;;
75220;SDS011;63802;53.232;6.570;2023-05-25T13:04:20;14.48;;;3.17;;
75220;SDS011;63802;53.232;6.570;2023-05-25T13:06:45;15.25;;;3.20;;
75220;SDS011;63802;53.232;6.570;2023-05-25T13:09:10;15.85;;;3.28;;
75220;SDS011;63802;53.232;6.570;2023-05-25T13:11:36;17.45;;;3.97;;
75220;SDS011;63802;53.232;6.570;2023-05-25T13:14:02;20.67;;;4.25;;
75220;SDS011;63802;53.232;6.570;2023-05-25T13:16:31;14.43;;;3.35;;
75220;SDS011;63802;53.232;6.570;2023-05-25T13:18:56;20.00;;;3.92;;
75220;SDS011;63802;53.232;6.570;2023-05-25T13:21:22;17.02;;;3.45;;
75220;SDS011;63802;53.232;6.570;2023-05-25T13:23:47;18.55;;;3.10;;
75220;SDS011;63802;53.232;6.570;2023-05-25T13:26:13;15.57;;;3.50;;
75220;SDS011;63802;53.232;6.570;2023-05-25T13:28:38;18.27;;;3.63;;
75220;SDS011;63802;53.232;6.570;2023-05-25T13:31:04;18.27;;;3.75;;
75220;SDS011;63802;53.232;6.570;2023-05-25T13:33:29;20.75;;;3.63;;
75220;SDS011;63802;53.232;6.570;2023-05-25T13:35:54;15.20;;;3.33;;
75220;SDS011;63802;53.232;6.570;2023-05-25T13:38:23;17.17;;;3.53;;
75220;SDS011;63802;53.232;6.570;2023-05-25T13:40:49;22.58;;;3.83;;
75220;SDS011;63802;53.232;6.570;2023-05-25T13:43:15;19.17;;;4.15;;
75220;SDS011;63802;53.232;6.570;2023-05-25T13:45:40;15.02;;;3.95;;
75220;SDS011;63802;53.232;6.570;2023-05-25T13:48:06;17.98;;;4.00;;
75220;SDS011;63802;53.232;6.570;2023-05-25T13:50:31;19.77;;;5.28;;
75220;SDS011;63802;53.232;6.570;2023-05-25T13:52:57;22.08;;;4.03;;
75220;SDS011;63802;53.232;6.570;2023-05-25T13:55:22;20.85;;;4.15;;
75220;SDS011;63802;53.232;6.570;2023-05-25T13:57:48;15.32;;;3.67;;
75220;SDS011;63802;53.232;6.570;2023-05-25T14:00:13;17.70;;;3.67;;
75220;SDS011;63802;53.232;6.570;2023-05-25T14:02:39;10.95;;;3.40;;
75220;SDS011;63802;53.232;6.570;2023-05-25T14:05:43;14.82;;;3.38;;
75220;SDS011;63802;53.232;6.570;2023-05-25T14:08:08;18.30;;;4.40;;
75220;SDS011;63802;53.232;6.570;2023-05-25T14:10:36;16.15;;;5.13;;
75220;SDS011;63802;53.232;6.570;2023-05-25T14:13:02;16.95;;;3.90;;
75220;SDS011;63802;53.232;6.570;2023-05-25T14:15:28;21.33;;;4.20;;
75220;SDS011;63802;53.232;6.570;2023-05-25T14:17:54;11.57;;;3.28;;
75220;SDS011;63802;53.232;6.570;2023-05-25T14:20:19;13.15;;;3.40;;
75220;SDS011;63802;53.232;6.570;2023-05-25T14:22:49;16.42;;;4.20;;
75220;SDS011;63802;53.232;6.570;2023-05-25T14:25:15;16.70;;;3.78;;
75220;SDS011;63802;53.232;6.570;2023-05-25T14:27:41;16.42;;;4.05;;
75220;SDS011;63802;53.232;6.570;2023-05-25T14:30:07;22.42;;;4.05;;
75220;SDS011;63802;53.232;6.570;2023-05-25T14:32:32;16.52;;;3.85;;
75220;SDS011;63802;53.232;6.570;2023-05-25T14:34:58;16.30;;;3.08;;
75220;SDS011;63802;53.232;6.570;2023-05-25T14:37:23;17.88;;;3.28;;
75220;SDS011;63802;53.232;6.570;2023-05-25T14:39:49;22.83;;;3.60;;
75220;SDS011;63802;53.232;6.570;2023-05-25T14:42:14;17.55;;;3.70;;
75220;SDS011;63802;53.232;6.570;2023-05-25T14:44:40;20.67;;;3.60;;
75220;SDS011;63802;53.232;6.570;2023-05-25T14:47:05;17.38;;;3.78;;
75220;SDS011;63802;53.232;6.570;2023-05-25T14:49:31;13.57;;;2.97;;
75220;SDS011;63802;53.232;6.570;2023-05-25T14:51:56;18.27;;;3.53;;
75220;SDS011;63802;53.232;6.570;2023-05-25T14:54:22;24.00;;;4.03;;
75220;SDS011;63802;53.232;6.570;2023-05-25T14:56:47;16.48;;;3.17;;